Time;durP1;ratioP1;P1;durP2;ratioP2;P2;SDS_P1;SDS_P2;PMS_P1;PMS_P2;Temp;Humidity;BMP_temperature;BMP_pressure;BME280_temperature;BME280_humidity;BME280_pressure;Samples;Min_cycle;Max_cycle;Signal;HPM_P1;HPM_P2
2021/12/27 00:00:57;;;;;;;24.25;12.63;;;;;;;;;;5103154;28;20112;-60
2021/12/27 00:03:23;;;;;;;24.95;12.50;;;;;;;;;;5070711;28;20125;-60
2021/12/27 00:05:49;;;;;;;24.95;12.90;;;;;;;;;;5070111;28;20072;-60
2021/12/27 00:08:15;;;;;;;27.88;13.23;;;;;;;;;;5070960;28;20055;-60
2021/12/27 00:10:41;;;;;;;24.45;12.20;;;;;;;;;;5070768;28;20123;-60
2021/12/27 00:13:07;;;;;;;27.17;13.35;;;;;;;;;;5069887;28;20040;-60
2021/12/27 00:15:34;;;;;;;24.92;13.05;;;;;;;;;;5070439;28;20052;-60
2021/12/27 00:18:00;;;;;;;24.45;13.82;;;;;;;;;;5070614;28;20056;-60
2021/12/27 00:20:27;;;;;;;25.08;12.48;;;;;;;;;;5069738;28;20041;-60
2021/12/27 00:22:53;;;;;;;24.85;12.77;;;;;;;;;;5070052;28;20083;-60
2021/12/27 00:25:20;;;;;;;27.60;13.90;;;;;;;;;;5068230;28;20052;-60
2021/12/27 00:27:47;;;;;;;25.73;13.05;;;;;;;;;;5049422;28;20091;-60
2021/12/27 00:30:13;;;;;;;25.30;13.15;;;;;;;;;;5050277;28;20037;-60
2021/12/27 00:32:43;;;;;;;26.42;14.32;;;;;;;;;;5049854;28;20052;-60
2021/12/27 00:35:09;;;;;;;27.13;13.90;;;;;;;;;;5049153;28;20236;-60
2021/12/27 00:37:35;;;;;;;25.00;13.60;;;;;;;;;;5050299;28;20571;-60
2021/12/27 00:40:02;;;;;;;29.35;13.75;;;;;;;;;;5050194;28;20037;-60
2021/12/27 00:42:28;;;;;;;23.88;13.43;;;;;;;;;;5049434;28;20052;-60
2021/12/27 00:44:54;;;;;;;27.33;13.55;;;;;;;;;;5050055;28;20045;-60
2021/12/27 00:47:20;;;;;;;25.55;14.68;;;;;;;;;;5050168;28;20168;-60
2021/12/27 00:49:46;;;;;;;26.88;15.18;;;;;;;;;;5049404;28;20040;-60
2021/12/27 00:52:12;;;;;;;24.13;13.50;;;;;;;;;;5050037;28;20526;-60
2021/12/27 00:54:38;;;;;;;27.85;13.63;;;;;;;;;;5049761;28;20391;-60
2021/12/27 00:57:04;;;;;;;23.55;13.63;;;;;;;;;;5049583;28;20033;-60
2021/12/27 00:59:30;;;;;;;25.15;13.48;;;;;;;;;;5050036;28;20048;-60
2021/12/27 01:01:56;;;;;;;25.70;12.98;;;;;;;;;;5049996;28;20403;-60
2021/12/27 01:04:23;;;;;;;22.33;13.07;;;;;;;;;;5082280;28;20037;-60
2021/12/27 01:06:49;;;;;;;25.15;13.70;;;;;;;;;;5049693;28;20037;-60
2021/12/27 01:09:26;;;;;;;24.30;13.32;;;;;;;;;;5049841;28;20045;-60
2021/12/27 01:12:08;;;;;;;25.50;13.80;;;;;;;;;;5049221;28;20048;-60
2021/12/27 01:14:55;;;;;;;27.67;13.93;;;;;;;;;;5049541;28;20147;-60
2021/12/27 01:17:21;;;;;;;24.38;13.48;;;;;;;;;;5050114;28;20051;-60
2021/12/27 01:19:47;;;;;;;24.80;14.10;;;;;;;;;;5048820;28;20041;-60
2021/12/27 01:22:16;;;;;;;26.85;14.32;;;;;;;;;;5049454;28;20037;-60
2021/12/27 01:24:42;;;;;;;28.00;14.52;;;;;;;;;;5049550;28;20048;-60
2021/12/27 01:27:08;;;;;;;28.85;14.13;;;;;;;;;;5065908;28;20440;-60
2021/12/27 01:29:34;;;;;;;26.05;13.90;;;;;;;;;;5069722;28;20083;-60
2021/12/27 01:32:02;;;;;;;28.60;14.07;;;;;;;;;;5069765;28;20414;-60
2021/12/27 01:34:29;;;;;;;29.17;15.05;;;;;;;;;;5068895;28;20101;-60
2021/12/27 01:36:57;;;;;;;28.85;14.35;;;;;;;;;;5069711;28;20049;-60
2021/12/27 01:39:23;;;;;;;23.23;14.48;;;;;;;;;;5072312;28;20048;-60
2021/12/27 01:41:49;;;;;;;27.50;15.23;;;;;;;;;;5073035;28;20477;-60
2021/12/27 01:44:15;;;;;;;26.90;14.05;;;;;;;;;;5073212;28;20048;-60
2021/12/27 01:46:41;;;;;;;28.83;14.45;;;;;;;;;;5073114;28;20047;-60
2021/12/27 01:49:08;;;;;;;24.10;13.90;;;;;;;;;;5072707;28;20083;-60
2021/12/27 01:51:38;;;;;;;26.38;14.77;;;;;;;;;;5073071;28;20052;-60
2021/12/27 01:54:04;;;;;;;26.98;14.02;;;;;;;;;;5072786;28;20075;-60
2021/12/27 01:56:30;;;;;;;27.65;14.63;;;;;;;;;;5072453;28;20394;-60
2021/12/27 01:58:57;;;;;;;26.10;14.77;;;;;;;;;;5073064;28;20044;-60
2021/12/27 02:01:23;;;;;;;27.13;13.88;;;;;;;;;;5073113;28;20076;-60
2021/12/27 02:03:50;;;;;;;27.58;14.63;;;;;;;;;;5072246;28;20075;-60
2021/12/27 02:06:16;;;;;;;27.25;15.10;;;;;;;;;;5072819;28;20049;-60
2021/12/27 02:08:42;;;;;;;25.83;13.95;;;;;;;;;;5072991;28;20044;-60
2021/12/27 02:11:09;;;;;;;26.42;13.15;;;;;;;;;;5072148;28;20199;-60
2021/12/27 02:13:41;;;;;;;27.00;14.07;;;;;;;;;;5072742;28;20097;-60
2021/12/27 02:16:07;;;;;;;27.90;14.68;;;;;;;;;;5072620;28;20070;-60
2021/12/27 02:18:33;;;;;;;26.52;13.82;;;;;;;;;;5071857;28;20040;-60
2021/12/27 02:20:59;;;;;;;27.33;13.98;;;;;;;;;;5072658;28;20041;-60
2021/12/27 02:23:25;;;;;;;28.35;14.43;;;;;;;;;;5072062;28;20474;-60
2021/12/27 02:25:52;;;;;;;28.45;14.80;;;;;;;;;;5065819;28;20041;-60
2021/12/27 02:28:19;;;;;;;29.85;14.68;;;;;;;;;;5052253;28;20044;-60
2021/12/27 02:30:46;;;;;;;28.52;15.48;;;;;;;;;;5052451;28;20072;-60
2021/12/27 02:33:12;;;;;;;27.42;14.40;;;;;;;;;;5052364;28;20041;-60
2021/12/27 02:35:43;;;;;;;30.40;15.43;;;;;;;;;;5051766;28;20495;-60
2021/12/27 02:38:11;;;;;;;28.88;15.65;;;;;;;;;;5052281;28;20118;-60
2021/12/27 02:40:38;;;;;;;27.42;14.68;;;;;;;;;;5052146;28;20208;-60
2021/12/27 02:43:12;;;;;;;31.20;15.38;;;;;;;;;;5051720;28;20515;-60
2021/12/27 02:45:40;;;;;;;23.90;14.00;;;;;;;;;;5051857;28;20721;-60
2021/12/27 02:48:06;;;;;;;29.13;15.32;;;;;;;;;;5051683;28;20090;-60
2021/12/27 02:50:33;;;;;;;25.98;15.02;;;;;;;;;;5051558;28;20415;-60
2021/12/27 02:53:00;;;;;;;30.88;16.08;;;;;;;;;;5051845;28;20466;-60
2021/12/27 02:55:26;;;;;;;26.92;14.88;;;;;;;;;;5051551;28;20377;-60
2021/12/27 02:57:52;;;;;;;28.27;14.85;;;;;;;;;;5051682;28;20483;-60
2021/12/27 03:00:20;;;;;;;28.00;14.63;;;;;;;;;;5052008;28;20124;-60
2021/12/27 03:02:47;;;;;;;31.60;15.30;;;;;;;;;;5051832;28;20049;-60
2021/12/27 03:05:16;;;;;;;27.60;14.93;;;;;;;;;;5051245;28;20041;-60
2021/12/27 03:07:43;;;;;;;30.48;15.38;;;;;;;;;;5051593;28;20047;-60
2021/12/27 03:10:10;;;;;;;29.33;15.35;;;;;;;;;;5051739;28;20458;-60
2021/12/27 03:12:38;;;;;;;29.77;14.95;;;;;;;;;;5050910;28;20041;-60
2021/12/27 03:15:04;;;;;;;27.98;15.40;;;;;;;;;;5051708;28;20403;-60
2021/12/27 03:17:30;;;;;;;27.30;14.00;;;;;;;;;;5051690;28;20479;-60
2021/12/27 03:19:56;;;;;;;29.15;15.98;;;;;;;;;;5051002;28;20044;-60
2021/12/27 03:22:22;;;;;;;30.08;15.52;;;;;;;;;;5050979;28;20053;-60
2021/12/27 03:24:48;;;;;;;31.60;16.60;;;;;;;;;;5051319;28;20049;-60
2021/12/27 03:27:14;;;;;;;31.40;15.80;;;;;;;;;;5068425;28;20059;-60
2021/12/27 03:29:40;;;;;;;29.70;15.57;;;;;;;;;;5071405;28;20048;-60
2021/12/27 03:32:06;;;;;;;30.02;15.63;;;;;;;;;;5071185;28;20372;-60
2021/12/27 03:34:33;;;;;;;28.75;14.93;;;;;;;;;;5070561;28;20587;-60
2021/12/27 03:37:00;;;;;;;26.23;14.77;;;;;;;;;;5071460;28;20498;-60
2021/12/27 03:39:26;;;;;;;29.35;15.10;;;;;;;;;;5071168;28;20043;-60
2021/12/27 03:41:52;;;;;;;28.45;16.35;;;;;;;;;;5070771;28;20076;-60
2021/12/27 03:44:18;;;;;;;30.65;16.75;;;;;;;;;;5070661;28;20075;-60
2021/12/27 03:46:43;;;;;;;28.88;16.23;;;;;;;;;;5071076;28;20048;-60
2021/12/27 03:49:09;;;;;;;29.50;16.02;;;;;;;;;;5070431;28;20059;-60
2021/12/27 03:51:35;;;;;;;29.52;15.48;;;;;;;;;;5070881;28;20115;-60
2021/12/27 03:54:01;;;;;;;27.45;15.88;;;;;;;;;;5070810;28;20048;-60
2021/12/27 03:56:27;;;;;;;29.02;15.43;;;;;;;;;;5070110;28;20491;-60
2021/12/27 03:59:08;;;;;;;27.58;14.23;;;;;;;;;;5070771;28;20375;-60
2021/12/27 04:01:34;;;;;;;28.95;15.63;;;;;;;;;;5070233;28;20049;-60
2021/12/27 04:04:00;;;;;;;27.50;14.82;;;;;;;;;;5069724;28;20155;-60
2021/12/27 04:06:27;;;;;;;25.40;14.52;;;;;;;;;;5070611;28;20041;-60
2021/12/27 04:08:53;;;;;;;31.25;16.08;;;;;;;;;;5070450;28;20049;-60
2021/12/27 04:11:19;;;;;;;30.13;15.77;;;;;;;;;;5069926;28;20053;-60
2021/12/27 04:13:46;;;;;;;28.92;15.57;;;;;;;;;;5070390;28;20110;-60
2021/12/27 04:16:12;;;;;;;31.10;15.57;;;;;;;;;;5070467;28;20272;-60
2021/12/27 04:18:38;;;;;;;28.33;15.20;;;;;;;;;;5069461;28;20471;-60
2021/12/27 04:21:04;;;;;;;27.27;15.05;;;;;;;;;;5102688;28;20402;-60
2021/12/27 04:23:30;;;;;;;29.92;16.15;;;;;;;;;;5070019;28;20064;-60
2021/12/27 04:25:56;;;;;;;27.48;15.55;;;;;;;;;;5061088;28;20041;-60
2021/12/27 04:28:22;;;;;;;32.78;16.05;;;;;;;;;;5050121;28;20068;-60
2021/12/27 04:30:48;;;;;;;29.83;15.63;;;;;;;;;;5050122;28;20475;-60
2021/12/27 04:33:14;;;;;;;28.20;15.60;;;;;;;;;;5047930;28;20041;-60
2021/12/27 04:35:40;;;;;;;27.75;15.63;;;;;;;;;;5050445;28;20070;-60
2021/12/27 04:38:06;;;;;;;32.30;15.20;;;;;;;;;;5049905;28;20479;-60
2021/12/27 04:40:37;;;;;;;32.03;15.77;;;;;;;;;;5049658;28;20044;-60
2021/12/27 04:43:08;;;;;;;28.30;16.48;;;;;;;;;;5049940;28;20479;-60
2021/12/27 04:45:34;;;;;;;32.28;16.17;;;;;;;;;;5050267;28;20059;-60
2021/12/27 04:48:01;;;;;;;30.50;15.98;;;;;;;;;;5049618;28;20485;-60
2021/12/27 04:50:27;;;;;;;26.70;15.27;;;;;;;;;;5050232;28;20064;-60
2021/12/27 04:52:53;;;;;;;30.13;16.10;;;;;;;;;;5049998;28;20045;-60
2021/12/27 04:55:23;;;;;;;34.15;17.58;;;;;;;;;;5049043;28;20446;-60
2021/12/27 04:57:49;;;;;;;28.40;15.18;;;;;;;;;;5049979;28;20530;-60
2021/12/27 05:00:16;;;;;;;28.17;15.88;;;;;;;;;;5049956;28;20056;-60
2021/12/27 05:02:42;;;;;;;35.25;17.27;;;;;;;;;;5048931;28;20044;-60
2021/12/27 05:05:08;;;;;;;33.75;17.02;;;;;;;;;;5049954;28;20041;-60
2021/12/27 05:07:34;;;;;;;33.47;16.98;;;;;;;;;;5049961;28;20037;-60
2021/12/27 05:10:00;;;;;;;31.08;16.27;;;;;;;;;;5049212;28;20037;-60
2021/12/27 05:12:26;;;;;;;33.30;17.30;;;;;;;;;;5049705;28;20505;-60
2021/12/27 05:14:53;;;;;;;34.08;16.90;;;;;;;;;;5052914;28;20439;-60
2021/12/27 05:17:19;;;;;;;38.08;16.83;;;;;;;;;;5052866;28;20128;-60
2021/12/27 05:19:45;;;;;;;36.97;18.10;;;;;;;;;;5053504;28;20454;-60
2021/12/27 05:22:11;;;;;;;31.70;16.70;;;;;;;;;;5053244;28;20048;-60
2021/12/27 05:24:37;;;;;;;34.70;18.08;;;;;;;;;;5052559;28;20045;-60
2021/12/27 05:27:03;;;;;;;35.00;18.17;;;;;;;;;;5069782;28;20040;-60
2021/12/27 05:29:29;;;;;;;36.55;16.40;;;;;;;;;;5072836;28;20044;-60
2021/12/27 05:32:01;;;;;;;34.38;18.25;;;;;;;;;;5072817;28;20093;-60
2021/12/27 05:34:27;;;;;;;32.00;17.30;;;;;;;;;;5073483;28;20102;-60
2021/12/27 05:36:53;;;;;;;34.20;17.75;;;;;;;;;;5073625;28;20048;-60
2021/12/27 05:39:20;;;;;;;31.13;16.88;;;;;;;;;;5072567;28;20041;-60
2021/12/27 05:41:47;;;;;;;30.17;16.80;;;;;;;;;;5073458;28;20045;-60
2021/12/27 05:44:14;;;;;;;32.50;17.13;;;;;;;;;;5073373;28;20048;-60
2021/12/27 05:46:40;;;;;;;31.30;16.15;;;;;;;;;;5072617;28;20119;-60
2021/12/27 05:49:06;;;;;;;37.05;18.25;;;;;;;;;;5073172;28;20101;-60
2021/12/27 05:51:32;;;;;;;30.80;17.08;;;;;;;;;;5073237;28;20036;-60
2021/12/27 05:53:58;;;;;;;36.25;17.80;;;;;;;;;;5072501;28;20070;-60
2021/12/27 05:56:24;;;;;;;39.15;18.13;;;;;;;;;;5073257;28;20463;-60
2021/12/27 05:58:50;;;;;;;37.47;18.75;;;;;;;;;;5073110;28;20036;-60
2021/12/27 06:01:16;;;;;;;35.75;17.50;;;;;;;;;;5072390;28;20123;-60
2021/12/27 06:03:42;;;;;;;37.45;19.08;;;;;;;;;;5073077;28;20420;-60
2021/12/27 06:06:10;;;;;;;34.83;17.80;;;;;;;;;;5072836;28;20128;-60
2021/12/27 06:08:36;;;;;;;39.42;18.73;;;;;;;;;;5072065;28;20102;-60
2021/12/27 06:11:02;;;;;;;38.92;18.48;;;;;;;;;;5072826;28;20037;-60
2021/12/27 06:13:28;;;;;;;36.63;18.05;;;;;;;;;;5072715;28;20043;-60
2021/12/27 06:15:54;;;;;;;33.83;17.40;;;;;;;;;;5072099;28;20079;-60
2021/12/27 06:18:20;;;;;;;34.83;18.20;;;;;;;;;;5071471;28;20471;-60
2021/12/27 06:20:46;;;;;;;42.05;19.02;;;;;;;;;;5072360;28;20095;-60
2021/12/27 06:23:12;;;;;;;36.03;17.48;;;;;;;;;;5071265;28;20486;-60
2021/12/27 06:25:39;;;;;;;34.30;17.08;;;;;;;;;;5071457;28;20530;-60
2021/12/27 06:28:05;;;;;;;37.35;17.85;;;;;;;;;;5072371;28;20076;-60
2021/12/27 06:30:31;;;;;;;38.03;18.83;;;;;;;;;;5071465;28;20097;-60
2021/12/27 06:32:57;;;;;;;37.03;17.70;;;;;;;;;;5070767;28;20040;-60
2021/12/27 06:35:23;;;;;;;35.92;18.02;;;;;;;;;;5072325;28;20047;-60
2021/12/27 06:37:49;;;;;;;41.00;19.23;;;;;;;;;;5071744;28;20119;-60
2021/12/27 06:40:16;;;;;;;39.55;19.08;;;;;;;;;;5071964;28;20346;-60
2021/12/27 06:42:42;;;;;;;38.92;18.23;;;;;;;;;;5072450;28;20040;-61
2021/12/27 06:45:09;;;;;;;44.40;18.38;;;;;;;;;;5071374;28;20119;-59
2021/12/27 06:47:35;;;;;;;41.47;19.95;;;;;;;;;;5072169;28;20040;-61
2021/12/27 06:50:01;;;;;;;38.33;17.60;;;;;;;;;;5073120;28;20033;-61
2021/12/27 06:52:27;;;;;;;38.67;18.13;;;;;;;;;;5072126;28;20067;-60
2021/12/27 06:54:54;;;;;;;35.67;18.13;;;;;;;;;;5072409;28;20044;-61
2021/12/27 06:57:20;;;;;;;35.08;17.73;;;;;;;;;;5052994;28;20128;-61
2021/12/27 06:59:46;;;;;;;49.20;19.33;;;;;;;;;;5059001;28;20489;-61
2021/12/27 07:02:13;;;;;;;38.08;18.50;;;;;;;;;;5072440;28;20052;-61
2021/12/27 07:04:39;;;;;;;36.92;18.35;;;;;;;;;;5069415;28;20508;-61
2021/12/27 07:07:05;;;;;;;36.97;19.15;;;;;;;;;;5072401;28;20051;-61
2021/12/27 07:09:31;;;;;;;38.47;18.63;;;;;;;;;;5072218;28;20040;-61
2021/12/27 07:11:57;;;;;;;38.85;18.88;;;;;;;;;;5072361;28;20543;-61
2021/12/27 07:14:23;;;;;;;36.30;18.98;;;;;;;;;;5072529;28;20433;-61
2021/12/27 07:16:49;;;;;;;46.03;19.45;;;;;;;;;;5071346;28;20115;-61
2021/12/27 07:19:15;;;;;;;38.90;18.13;;;;;;;;;;5072177;28;20811;-61
2021/12/27 07:21:41;;;;;;;37.28;18.08;;;;;;;;;;5071993;28;20483;-61
2021/12/27 07:24:08;;;;;;;40.78;18.80;;;;;;;;;;5065693;28;20531;-61
2021/12/27 07:26:34;;;;;;;45.47;19.75;;;;;;;;;;5071191;28;20033;-61
2021/12/27 07:29:00;;;;;;;42.55;19.13;;;;;;;;;;5071043;28;20471;-61
2021/12/27 07:31:26;;;;;;;39.58;17.52;;;;;;;;;;5060445;28;20072;-61
2021/12/27 07:33:53;;;;;;;43.25;18.60;;;;;;;;;;5070676;28;20101;-61
2021/12/27 07:36:20;;;;;;;40.90;19.95;;;;;;;;;;5071970;28;20052;-61
2021/12/27 07:38:46;;;;;;;45.00;18.48;;;;;;;;;;5070861;28;20127;-61
2021/12/27 07:41:12;;;;;;;44.15;18.85;;;;;;;;;;5071857;28;20048;-61
2021/12/27 07:43:38;;;;;;;46.58;20.05;;;;;;;;;;5072347;28;20495;-61
2021/12/27 07:46:04;;;;;;;43.83;18.50;;;;;;;;;;5070319;28;20124;-60
2021/12/27 07:48:30;;;;;;;48.55;19.45;;;;;;;;;;5071874;28;20420;-61
2021/12/27 07:50:56;;;;;;;44.03;18.80;;;;;;;;;;5072069;28;20498;-61
2021/12/27 07:53:22;;;;;;;45.65;19.60;;;;;;;;;;5071416;28;20166;-61
2021/12/27 07:55:48;;;;;;;51.35;20.42;;;;;;;;;;5071573;28;20064;-61
2021/12/27 07:58:14;;;;;;;43.55;19.30;;;;;;;;;;5071831;28;20044;-61
2021/12/27 08:00:40;;;;;;;42.22;19.05;;;;;;;;;;5070209;28;20452;-62
2021/12/27 08:03:06;;;;;;;44.25;18.77;;;;;;;;;;5074998;28;20581;-61
2021/12/27 08:05:32;;;;;;;39.13;18.10;;;;;;;;;;5070316;28;20037;-61
2021/12/27 08:07:59;;;;;;;42.28;19.05;;;;;;;;;;5069846;28;20036;-61
2021/12/27 08:10:25;;;;;;;48.80;19.98;;;;;;;;;;5070414;28;20040;-61
2021/12/27 08:12:51;;;;;;;48.00;19.42;;;;;;;;;;5070073;28;20033;-61
2021/12/27 08:15:17;;;;;;;55.85;20.20;;;;;;;;;;5061746;28;20085;-61
2021/12/27 08:17:43;;;;;;;52.78;21.08;;;;;;;;;;5064804;28;20776;-61
2021/12/27 08:20:10;;;;;;;55.55;21.33;;;;;;;;;;5070382;28;20040;-61
2021/12/27 08:22:36;;;;;;;50.10;20.90;;;;;;;;;;5070545;28;20092;-61
2021/12/27 08:25:06;;;;;;;52.58;20.67;;;;;;;;;;5070880;28;20048;-62
2021/12/27 08:27:32;;;;;;;54.75;21.50;;;;;;;;;;5059334;28;20149;-62
2021/12/27 08:30:04;;;;;;;56.55;20.60;;;;;;;;;;5060694;28;20068;-62
2021/12/27 08:32:30;;;;;;;54.92;21.63;;;;;;;;;;5066628;28;20036;-62
2021/12/27 08:34:56;;;;;;;51.70;19.80;;;;;;;;;;5070403;28;20044;-62
2021/12/27 08:37:22;;;;;;;51.00;21.58;;;;;;;;;;5070581;28;20045;-62
2021/12/27 08:39:48;;;;;;;60.97;20.60;;;;;;;;;;5069613;28;20051;-62
2021/12/27 08:42:14;;;;;;;50.28;20.00;;;;;;;;;;5070619;28;20036;-61
2021/12/27 08:44:40;;;;;;;55.65;21.27;;;;;;;;;;5069285;28;20040;-62
2021/12/27 08:47:08;;;;;;;51.58;20.70;;;;;;;;;;5070377;28;20441;-62
2021/12/27 08:49:34;;;;;;;57.53;21.58;;;;;;;;;;5069555;28;20067;-61
2021/12/27 08:52:00;;;;;;;49.50;19.15;;;;;;;;;;5069849;28;20076;-62
2021/12/27 08:54:26;;;;;;;52.60;21.02;;;;;;;;;;5071084;28;20040;-61
2021/12/27 08:56:52;;;;;;;55.35;21.45;;;;;;;;;;5070879;28;20047;-62
2021/12/27 08:59:19;;;;;;;48.72;19.25;;;;;;;;;;5070384;28;20124;-62
2021/12/27 09:01:45;;;;;;;57.33;21.05;;;;;;;;;;5070890;28;20094;-61
2021/12/27 09:04:11;;;;;;;56.25;21.05;;;;;;;;;;5066981;28;20035;-62
2021/12/27 09:06:37;;;;;;;50.33;20.25;;;;;;;;;;5070294;28;20076;-62
2021/12/27 09:09:04;;;;;;;58.70;21.00;;;;;;;;;;5070308;28;20076;-63
2021/12/27 09:11:30;;;;;;;60.80;22.60;;;;;;;;;;5070543;28;20115;-63
2021/12/27 09:13:56;;;;;;;57.53;20.52;;;;;;;;;;5069780;28;20482;-63
2021/12/27 09:16:22;;;;;;;54.53;21.02;;;;;;;;;;5070343;28;20068;-63
2021/12/27 09:18:48;;;;;;;58.90;21.00;;;;;;;;;;5070898;28;20040;-63
2021/12/27 09:21:15;;;;;;;55.92;20.98;;;;;;;;;;5069906;28;20036;-63
2021/12/27 09:23:41;;;;;;;54.85;23.42;;;;;;;;;;5069658;28;20512;-63
2021/12/27 09:26:07;;;;;;;66.88;21.30;;;;;;;;;;5070877;28;20351;-63
2021/12/27 09:28:33;;;;;;;59.03;21.42;;;;;;;;;;5070041;28;20032;-63
2021/12/27 09:30:59;;;;;;;65.00;22.42;;;;;;;;;;5070516;28;20462;-63
2021/12/27 09:33:26;;;;;;;61.80;22.75;;;;;;;;;;5070176;28;20040;-63
2021/12/27 09:35:53;;;;;;;61.15;23.08;;;;;;;;;;5069884;28;20048;-63
2021/12/27 09:38:19;;;;;;;63.88;23.10;;;;;;;;;;5070700;28;20044;-63
2021/12/27 09:40:46;;;;;;;55.25;22.10;;;;;;;;;;5070477;28;20060;-63
2021/12/27 09:43:12;;;;;;;64.18;21.45;;;;;;;;;;5069547;28;20400;-63
2021/12/27 09:45:38;;;;;;;59.80;22.83;;;;;;;;;;5070234;28;20106;-63
2021/12/27 09:48:04;;;;;;;71.60;22.17;;;;;;;;;;5069882;28;20458;-63
2021/12/27 09:50:32;;;;;;;64.93;23.00;;;;;;;;;;5069993;28;20464;-63
2021/12/27 09:52:58;;;;;;;63.50;22.40;;;;;;;;;;5093524;28;20040;-63
2021/12/27 09:55:26;;;;;;;60.05;21.40;;;;;;;;;;5070270;28;20471;-63
2021/12/27 09:57:53;;;;;;;61.53;21.90;;;;;;;;;;5069298;28;20033;-63
2021/12/27 10:00:19;;;;;;;63.75;21.17;;;;;;;;;;5070550;28;20040;-64
2021/12/27 10:02:48;;;;;;;67.32;23.00;;;;;;;;;;5073744;28;20040;-63
2021/12/27 10:05:14;;;;;;;70.50;23.20;;;;;;;;;;5072535;28;20047;-63
2021/12/27 10:07:43;;;;;;;59.30;21.50;;;;;;;;;;5073270;28;20059;-63
2021/12/27 10:10:10;;;;;;;56.95;21.88;;;;;;;;;;5073475;28;20128;-63
2021/12/27 10:12:37;;;;;;;66.38;22.83;;;;;;;;;;5068716;28;20040;-63
2021/12/27 10:15:05;;;;;;;64.85;22.80;;;;;;;;;;5070852;28;20128;-63
2021/12/27 10:17:31;;;;;;;66.97;21.70;;;;;;;;;;5073324;28;20041;-63
2021/12/27 10:20:08;;;;;;;70.80;22.13;;;;;;;;;;5072885;28;20414;-63
2021/12/27 10:22:37;;;;;;;73.95;22.27;;;;;;;;;;5063741;28;20045;-63
2021/12/27 10:25:07;;;;;;;66.97;22.92;;;;;;;;;;5072814;28;20113;-63
2021/12/27 10:27:35;;;;;;;70.28;19.92;;;;;;;;;;5057254;28;20039;-63
2021/12/27 10:30:09;;;;;;;76.55;23.15;;;;;;;;;;5066255;28;20486;-63
2021/12/27 10:32:35;;;;;;;67.20;24.70;;;;;;;;;;5073009;28;20112;-63
2021/12/27 10:35:05;;;;;;;61.53;22.95;;;;;;;;;;5072208;28;20040;-63
2021/12/27 10:37:32;;;;;;;61.72;22.23;;;;;;;;;;5072308;28;20072;-63
2021/12/27 10:40:12;;;;;;;64.65;21.77;;;;;;;;;;5073074;28;20090;-63
2021/12/27 10:42:39;;;;;;;64.22;22.33;;;;;;;;;;5071862;28;20067;-63
2021/12/27 10:45:11;;;;;;;67.63;22.98;;;;;;;;;;5096697;28;20053;-64
2021/12/27 10:47:44;;;;;;;67.25;23.75;;;;;;;;;;5072772;28;20048;-63
2021/12/27 10:50:14;;;;;;;70.20;22.48;;;;;;;;;;5052765;28;20506;-63
2021/12/27 10:52:47;;;;;;;68.80;23.27;;;;;;;;;;5060805;28;20087;-63
2021/12/27 10:55:15;;;;;;;72.22;23.48;;;;;;;;;;5072271;28;20045;-63
2021/12/27 10:57:41;;;;;;;68.70;22.80;;;;;;;;;;5072113;28;20044;-63
2021/12/27 11:00:15;;;;;;;74.32;23.50;;;;;;;;;;5071715;28;20040;-63
2021/12/27 11:02:41;;;;;;;67.75;23.20;;;;;;;;;;5061531;28;20624;-63
2021/12/27 11:05:17;;;;;;;77.30;23.23;;;;;;;;;;5067190;28;20124;-63
2021/12/27 11:07:44;;;;;;;71.78;22.58;;;;;;;;;;5072525;28;20499;-63
2021/12/27 11:10:10;;;;;;;67.50;21.00;;;;;;;;;;5072481;28;20047;-63
2021/12/27 11:12:37;;;;;;;73.60;22.25;;;;;;;;;;5070857;28;20040;-63
2021/12/27 11:15:04;;;;;;;63.17;22.55;;;;;;;;;;5072000;28;20042;-63
2021/12/27 11:17:30;;;;;;;70.35;23.30;;;;;;;;;;5071362;28;20098;-63
2021/12/27 11:19:56;;;;;;;75.30;22.95;;;;;;;;;;5071704;28;20047;-63
2021/12/27 11:22:22;;;;;;;76.65;25.02;;;;;;;;;;5071090;28;20045;-63
2021/12/27 11:24:48;;;;;;;71.28;22.25;;;;;;;;;;5067819;28;20185;-63
2021/12/27 11:27:15;;;;;;;74.25;22.35;;;;;;;;;;5063532;28;20547;-63
2021/12/27 11:29:41;;;;;;;65.65;22.17;;;;;;;;;;5067109;28;20032;-63
2021/12/27 11:32:11;;;;;;;68.53;23.35;;;;;;;;;;5071885;28;20048;-63
2021/12/27 11:34:54;;;;;;;69.25;23.73;;;;;;;;;;5061266;28;20535;-64
2021/12/27 11:37:20;;;;;;;78.25;23.75;;;;;;;;;;5070497;28;20044;-63
2021/12/27 11:39:46;;;;;;;71.53;23.50;;;;;;;;;;5071164;28;20043;-63
2021/12/27 11:42:17;;;;;;;71.95;23.35;;;;;;;;;;5069864;28;20090;-63
2021/12/27 11:44:45;;;;;;;71.35;24.17;;;;;;;;;;5070395;28;20037;-63
2021/12/27 11:47:22;;;;;;;67.50;23.15;;;;;;;;;;5070537;28;20040;-63
2021/12/27 11:49:51;;;;;;;72.25;24.48;;;;;;;;;;5069790;28;20044;-63
2021/12/27 11:52:19;;;;;;;77.00;24.73;;;;;;;;;;5071816;28;20131;-63
2021/12/27 11:54:50;;;;;;;72.88;23.48;;;;;;;;;;5071584;28;20048;-63
2021/12/27 11:57:34;;;;;;;73.32;24.17;;;;;;;;;;5064484;28;20223;-63
2021/12/27 12:00:01;;;;;;;74.47;23.27;;;;;;;;;;5069241;28;20067;-64
2021/12/27 12:02:27;;;;;;;86.28;23.50;;;;;;;;;;5071549;28;20036;-63
2021/12/27 12:04:58;;;;;;;68.35;21.65;;;;;;;;;;5063197;28;20037;-63
2021/12/27 12:07:35;;;;;;;91.25;25.55;;;;;;;;;;5071992;28;20166;-63
2021/12/27 12:10:03;;;;;;;79.55;24.42;;;;;;;;;;5071319;28;20076;-63
2021/12/27 12:12:30;;;;;;;75.65;24.50;;;;;;;;;;5070915;28;20092;-63
2021/12/27 12:14:57;;;;;;;68.47;21.92;;;;;;;;;;5071308;28;20127;-63
2021/12/27 12:17:44;;;;;;;83.35;24.92;;;;;;;;;;5071637;28;20040;-63
2021/12/27 12:20:29;;;;;;;82.03;24.80;;;;;;;;;;5062725;28;20116;-63
2021/12/27 12:22:59;;;;;;;85.72;24.73;;;;;;;;;;5067354;28;20071;-63
2021/12/27 12:25:26;;;;;;;92.63;24.33;;;;;;;;;;5070054;28;20122;-63
2021/12/27 12:27:56;;;;;;;92.68;26.42;;;;;;;;;;5070819;28;20114;-63
2021/12/27 12:30:25;;;;;;;92.07;27.38;;;;;;;;;;5071062;28;20353;-64
2021/12/27 12:32:58;;;;;;;80.50;25.08;;;;;;;;;;5070398;28;20080;-63
2021/12/27 12:35:32;;;;;;;83.75;24.92;;;;;;;;;;5070573;28;20475;-63
2021/12/27 12:38:17;;;;;;;85.97;25.00;;;;;;;;;;5070566;28;20041;-63
2021/12/27 12:40:44;;;;;;;80.85;25.88;;;;;;;;;;5070495;28;20051;-63
2021/12/27 12:43:10;;;;;;;93.05;27.05;;;;;;;;;;5070227;28;20101;-63
2021/12/27 12:45:38;;;;;;;79.53;27.42;;;;;;;;;;5070724;28;20486;-63
2021/12/27 12:48:05;;;;;;;77.75;24.52;;;;;;;;;;5070462;28;20044;-63
2021/12/27 12:50:31;;;;;;;74.72;24.83;;;;;;;;;;5070870;28;20710;-63
2021/12/27 12:52:58;;;;;;;76.18;25.77;;;;;;;;;;5071026;28;20033;-63
2021/12/27 12:55:26;;;;;;;88.80;27.08;;;;;;;;;;5070291;28;20040;-63
2021/12/27 12:57:52;;;;;;;78.18;25.50;;;;;;;;;;5070387;28;20049;-64
2021/12/27 13:00:22;;;;;;;76.55;24.90;;;;;;;;;;5068787;28;20044;-63
2021/12/27 13:02:48;;;;;;;73.35;24.15;;;;;;;;;;5068779;28;20063;-63
2021/12/27 13:05:15;;;;;;;75.90;25.30;;;;;;;;;;5070122;28;20064;-63
2021/12/27 13:07:46;;;;;;;79.13;24.48;;;;;;;;;;5070928;28;20033;-63
2021/12/27 13:10:18;;;;;;;68.07;24.00;;;;;;;;;;5069783;28;20042;-63
2021/12/27 13:12:44;;;;;;;66.22;22.38;;;;;;;;;;5069810;28;20033;-63
2021/12/27 13:15:10;;;;;;;81.55;25.30;;;;;;;;;;5070431;28;20048;-63
2021/12/27 13:17:37;;;;;;;73.55;24.35;;;;;;;;;;5069916;28;20052;-63
2021/12/27 13:20:09;;;;;;;64.38;22.50;;;;;;;;;;5070248;28;20052;-63
2021/12/27 13:22:38;;;;;;;65.07;22.20;;;;;;;;;;5069545;28;20052;-64
2021/12/27 13:25:04;;;;;;;54.15;21.90;;;;;;;;;;5068631;28;20084;-63
2021/12/27 13:27:30;;;;;;;67.22;21.95;;;;;;;;;;5070359;28;20036;-63
2021/12/27 13:30:23;;;;;;;59.95;23.45;;;;;;;;;;5069591;28;20465;-64
2021/12/27 13:32:49;;;;;;;60.38;21.23;;;;;;;;;;5067515;28;20075;-64
2021/12/27 13:35:18;;;;;;;65.05;21.90;;;;;;;;;;5071214;28;20046;-63
2021/12/27 13:37:45;;;;;;;67.13;21.27;;;;;;;;;;5074096;28;20375;-63
2021/12/27 13:40:14;;;;;;;57.38;22.40;;;;;;;;;;5073493;28;20040;-63
2021/12/27 13:42:40;;;;;;;59.25;20.73;;;;;;;;;;5073253;28;20134;-64
2021/12/27 13:45:16;;;;;;;58.80;21.77;;;;;;;;;;5073734;28;20123;-65
2021/12/27 13:47:49;;;;;;;59.33;21.40;;;;;;;;;;5072984;28;20037;-63
2021/12/27 13:50:15;;;;;;;51.97;20.40;;;;;;;;;;5073603;28;20040;-64
2021/12/27 13:52:45;;;;;;;51.60;19.38;;;;;;;;;;5073077;28;20040;-64
2021/12/27 13:55:20;;;;;;;50.42;19.63;;;;;;;;;;5072736;28;20127;-64
2021/12/27 13:57:46;;;;;;;51.28;18.42;;;;;;;;;;5073675;28;20044;-63
2021/12/27 14:00:13;;;;;;;43.97;19.20;;;;;;;;;;5073162;28;20036;-62
2021/12/27 14:02:41;;;;;;;51.53;19.33;;;;;;;;;;5073163;28;20040;-63
2021/12/27 14:05:07;;;;;;;48.28;19.25;;;;;;;;;;5073416;28;20052;-63
2021/12/27 14:07:34;;;;;;;49.58;18.58;;;;;;;;;;5074040;28;20032;-64
2021/12/27 14:10:00;;;;;;;56.83;20.75;;;;;;;;;;5073056;28;20040;-64
2021/12/27 14:12:30;;;;;;;47.40;19.02;;;;;;;;;;5074029;28;20040;-64
2021/12/27 14:15:04;;;;;;;49.22;19.75;;;;;;;;;;5073272;28;20498;-64
2021/12/27 14:17:32;;;;;;;39.45;18.35;;;;;;;;;;5072525;28;20045;-64